Buoy 44857

sailwx.info

Track history (hours):
 
Tides and Currents Weather Stations Pressure Air Temp Water Temp Dewpoint Dewpoint Depression Visibility Wind Speed Wind Dir Waves Ship Positions

Drifting buoy 44857

Last reported at 2018-Feb-18 23:00 UTC. Time now 2018-Feb-19 00:07 UTC.
Position N 28°48' W 030°25'.

Barometer 1023.9 mb
Water temperature 20.8 ° C

Date/timePositionNaut miles runAvg speedWind from/ knotsBaromVisibWave heightAir tempDewpointWater temp
2018-Feb-18 23:00N 28°48' W 030°25'1 0.5 1023.9 20.8
2018-Feb-18 22:00N 28°48' W 030°24'0 0.0 1024.0 20.8
2018-Feb-18 21:00N 28°48' W 030°24'0 0.0 1023.6 20.8
2018-Feb-18 20:00N 28°48' W 030°24'0 0.0 1023.5 20.9
2018-Feb-18 19:00N 28°48' W 030°24'0 0.0 1023.1 20.9
2018-Feb-18 18:00N 28°48' W 030°24'0 0.0 1022.9 21.2
2018-Feb-18 17:00N 28°48' W 030°24'1 0.5 1022.9 21.3
2018-Feb-18 16:00N 28°48' W 030°23'1 0.6 1023.3 21.4
2018-Feb-18 15:00N 28°47' W 030°23'0 0.0 1023.6 21.7
2018-Feb-18 14:00N 28°47' W 030°23'1 0.5 1024.3 21.6
2018-Feb-18 13:00N 28°47' W 030°24'1 0.8 1024.8 21.1
2018-Feb-18 12:00N 28°47' W 030°23'0 0.0 1024.9 20.8
2018-Feb-18 11:00N 28°47' W 030°23'0 0.0 1024.8 20.7
2018-Feb-18 10:00N 28°47' W 030°23'0 0.0 1024.2 20.6
2018-Feb-18 09:00N 28°47' W 030°23'0 0.0 1024.0 20.7
2018-Feb-18 08:00N 28°47' W 030°23'0 0.0 1023.7 20.6
2018-Feb-18 07:00N 28°47' W 030°23'0 0.0 1023.5 20.7
2018-Feb-18 06:00N 28°47' W 030°23'0 0.0 1023.7 20.7
2018-Feb-18 05:00N 28°47' W 030°23'0 0.0 1024.0 20.7
2018-Feb-18 04:00N 28°47' W 030°23'0 0.0 1024.4 20.7
2018-Feb-18 03:00N 28°47' W 030°23'0 0.0 1024.9 20.7
2018-Feb-18 02:00N 28°47' W 030°23'0 0.0 1025.3 20.8
2018-Feb-18 01:00N 28°47' W 030°23'0 0.0 1025.5 20.8
2018-Feb-18 00:00N 28°47' W 030°23'0 0.0 1025.9 20.8
2018-Feb-17 23:00N 28°47' W 030°23'0 0.0 1026.3 20.9
2018-Feb-17 22:00N 28°47' W 030°23'1 0.5 1026.1 20.9
2018-Feb-17 21:00N 28°47' W 030°24'0 0.0 1025.9 21.0
2018-Feb-17 20:00N 28°47' W 030°24'0 0.0 1025.5 21.1
2018-Feb-17 19:00N 28°47' W 030°24'0 0.0 1025.1 21.2
2018-Feb-17 18:00N 28°47' W 030°24'1 0.6 1025.0 21.3
2018-Feb-17 17:00N 28°46' W 030°24'0 0.0 1024.9 21.4
2018-Feb-17 16:00N 28°46' W 030°24'1 0.6 1025.2 21.4
2018-Feb-17 15:00N 28°46' W 030°24'0 0.0 1025.6 21.2
2018-Feb-17 14:00N 28°46' W 030°24'1 0.6 1026.4 21.1
2018-Feb-17 13:00N 28°45' W 030°24'1 0.5 1026.9 21.1
2018-Feb-17 12:00N 28°45' W 030°23'1 0.6 1027.0 20.9
2018-Feb-17 11:00N 28°44' W 030°23'0 0.0 1026.9 20.9
2018-Feb-17 10:00N 28°44' W 030°23'0 0.0 1026.4 20.8
2018-Feb-17 09:00N 28°44' W 030°23'1 0.6 1026.1 20.8
2018-Feb-17 08:00N 28°44' W 030°23'1 0.5 1025.6 20.8
2018-Feb-17 07:00N 28°44' W 030°23'0 0.0 1025.5 20.8
2018-Feb-17 06:00N 28°44' W 030°23'1 0.6 1025.3 20.9
2018-Feb-17 05:00N 28°43' W 030°23'0 0.0 1025.4 20.9
2018-Feb-17 04:00N 28°43' W 030°23'0 0.0 1025.8 20.8
2018-Feb-17 03:00N 28°43' W 030°23'1 0.6 1026.0 20.9
2018-Feb-17 02:00N 28°43' W 030°23'0 0.0 1026.3 20.9
2018-Feb-17 01:00N 28°43' W 030°23'0 0.0 1026.2 20.9
2018-Feb-17 00:00N 28°43' W 030°23'0 0.0 1026.4 20.9
2018-Feb-16 23:00N 28°43' W 030°23'0 0.0 1026.3 21.0
2018-Feb-16 22:00N 28°43' W 030°23'0 0.0 1026.1 21.1
2018-Feb-16 21:00N 28°43' W 030°23'0 0.0 1025.8 21.6
2018-Feb-16 20:00N 28°43' W 030°23'0 0.0 1025.2 21.7
2018-Feb-16 19:00N 28°43' W 030°23'0 0.0 1024.8 21.9
2018-Feb-16 18:00N 28°43' W 030°23'1 0.5 1024.3 22.1
2018-Feb-16 17:00N 28°43' W 030°23'0 0.0 1024.3 22.1
2018-Feb-16 16:00N 28°43' W 030°23'1 0.6 1024.1 22.8
2018-Feb-16 15:00N 28°42' W 030°23'0 0.0 1024.1 22.3
2018-Feb-16 14:00N 28°42' W 030°23'1 0.8 1024.6 21.8
2018-Feb-16 13:00N 28°41' W 030°24'0 0.0 1025.2 21.4
2018-Feb-16 12:00N 28°41' W 030°24'1 0.6 1025.4 21.1
2018-Feb-16 11:00N 28°41' W 030°24'0 0.0 1024.9 20.8
2018-Feb-16 10:00N 28°41' W 030°24'0 0.0 1024.4 20.8
2018-Feb-16 09:00N 28°41' W 030°24'0 0.0 1024.1 20.8
2018-Feb-16 08:00N 28°41' W 030°24'1 0.6 1023.6 20.8
2018-Feb-16 07:00N 28°40' W 030°24'0 0.0 1023.2 20.8
2018-Feb-16 06:00N 28°40' W 030°24'0 0.0 1023.1 20.8
2018-Feb-16 05:00N 28°40' W 030°24'1 0.6 1022.9 20.8
2018-Feb-16 04:00N 28°40' W 030°24'0 0.0 1023.0 20.9
2018-Feb-16 03:00N 28°40' W 030°24'1 0.6 1023.2 20.9
2018-Feb-16 02:00N 28°39' W 030°24'0 0.0 1023.3 20.9
2018-Feb-16 01:00N 28°39' W 030°24'1 0.8 1023.4 21.0
2018-Feb-16 00:00N 28°38' W 030°25'0 0.0 1023.3 21.0
2018-Feb-15 23:00N 28°38' W 030°25'1 0.5 1023.2 21.1
2018-Feb-15 22:00N 28°38' W 030°24'1 0.6 1022.9 21.1
2018-Feb-15 21:00N 28°38' W 030°24'0 0.0 1022.4 21.3
2018-Feb-15 20:00N 28°38' W 030°24'0 0.0 1022.4 21.4
2018-Feb-15 19:00N 28°38' W 030°24'0 0.0 1022.2 21.6
2018-Feb-15 18:00N 28°38' W 030°24'1 0.6 1021.9 21.6
2018-Feb-15 17:00N 28°37' W 030°24'0 0.0 1021.7 21.8
2018-Feb-15 16:00N 28°37' W 030°24'1 0.6 1022.0 21.7
2018-Feb-15 15:00N 28°37' W 030°24'0 0.0 1022.4 21.4
2018-Feb-15 14:00N 28°37' W 030°24'1 0.6 1022.9 21.2
2018-Feb-15 13:00N 28°36' W 030°24'0 0.0 1023.3 21.0
2018-Feb-15 12:00N 28°36' W 030°24'0 0.0 1023.2 20.8
2018-Feb-15 11:00N 28°36' W 030°24'1 0.6 1023.0 20.8
2018-Feb-15 10:00N 28°35' W 030°24'1 0.5 1022.4 20.8
2018-Feb-15 09:00N 28°35' W 030°23'0 0.0 1021.9 20.7
2018-Feb-15 08:00N 28°35' W 030°23'0 0.0 1021.4 20.8
2018-Feb-15 07:00N 28°35' W 030°23'0 0.0 1021.0 20.8
2018-Feb-15 06:00N 28°35' W 030°23'0 0.0 1020.8 20.7
2018-Feb-15 05:00N 28°35' W 030°23'0 0.0 1020.9 20.7
2018-Feb-15 04:00N 28°35' W 030°23'1 0.6 1021.2 20.7
2018-Feb-15 03:00N 28°35' W 030°23'0 0.0 1021.8 20.7
2018-Feb-15 02:00N 28°35' W 030°23'1 0.6 1022.0 20.7
2018-Feb-15 01:00N 28°34' W 030°23'1 0.5 1022.1 20.7
2018-Feb-15 00:00N 28°34' W 030°23'0 0.0 1022.4 20.6
2018-Feb-14 23:00N 28°34' W 030°23'1 0.6 1022.5 20.6
2018-Feb-14 22:00N 28°34' W 030°23'0 0.0 1022.4 20.6
2018-Feb-14 21:00N 28°34' W 030°23'1 0.5 1022.0 20.6
2018-Feb-14 20:00N 28°34' W 030°22'0 0.0 1021.4 20.7
2018-Feb-14 19:00N 28°34' W 030°22'1 0.5 1021.4 20.7
2018-Feb-14 18:00N 28°34' W 030°22'0 0.0 1021.4 20.8
2018-Feb-14 17:00N 28°34' W 030°22'0 0.0 1021.6 20.8
2018-Feb-14 16:00N 28°34' W 030°22'1 0.5 1022.0 20.7
2018-Feb-14 15:00N 28°34' W 030°21'0 0.0 1022.3 20.7
2018-Feb-14 14:00N 28°34' W 030°21'0 0.0 1023.1 20.6
2018-Feb-14 13:00N 28°34' W 030°21'1 0.5 1023.5 20.6
2018-Feb-14 12:00N 28°34' W 030°20'0 0.0 1023.8 20.6
2018-Feb-14 11:00N 28°34' W 030°20'0 0.0 1023.8 20.6
2018-Feb-14 10:00N 28°34' W 030°20'0 0.0 1023.4 20.5
2018-Feb-14 09:00N 28°34' W 030°20'1 0.5 1023.0 20.5
2018-Feb-14 08:00N 28°34' W 030°20'0 0.0 1022.7 20.5
2018-Feb-14 07:00N 28°34' W 030°20'0 0.0 1022.4 20.5
2018-Feb-14 06:00N 28°34' W 030°20'1 0.5 1022.7 20.5
2018-Feb-14 05:00N 28°34' W 030°19'1 0.6 1022.9 20.6
2018-Feb-14 04:00N 28°34' W 030°19'0 0.0 1023.4 20.5
2018-Feb-14 03:00N 28°34' W 030°19'1 0.6 1023.8 20.5
2018-Feb-14 02:00N 28°34' W 030°19'0 0.0 1024.1 20.4
2018-Feb-14 01:00N 28°34' W 030°19'0 0.0 1024.5 20.4
2018-Feb-14 00:00N 28°34' W 030°19'0 0.0 1024.6 20.4
2018-Feb-13 23:00N 28°34' W 030°19'1 0.5 1024.7 20.5
2018-Feb-13 22:00N 28°34' W 030°19'0 0.0 1024.5 20.6
2018-Feb-13 21:00N 28°34' W 030°19'0 0.0 1024.3 20.6
2018-Feb-13 20:00N 28°34' W 030°19'1 0.5 1024.3 20.7
2018-Feb-13 19:00N 28°34' W 030°18'1 0.6 1024.0 20.7
2018-Feb-13 18:00N 28°34' W 030°18'0 0.0 1024.1 20.7
2018-Feb-13 17:00N 28°34' W 030°18'0 0.0 1024.5 20.7
2018-Feb-13 16:00N 28°34' W 030°18'1 0.5 1024.8 20.7
2018-Feb-13 15:00N 28°34' W 030°17'1 0.6 1025.2 20.7
2018-Feb-13 14:00N 28°35' W 030°17'1 0.5 1025.8 20.7
2018-Feb-13 13:00N 28°35' W 030°17'1 0.5 1026.3 20.7
2018-Feb-13 12:00N 28°35' W 030°16'0 0.0 1026.5 20.6
2018-Feb-13 11:00N 28°35' W 030°16'1 1.1 1026.4 20.6
2018-Feb-13 10:00N 28°35' W 030°15'1 0.8 1025.8 20.6
2018-Feb-13 09:00N 28°35' W 030°14'0 0.0 1025.5 20.6
2018-Feb-13 08:00N 28°35' W 030°14'1 0.5 1025.1 20.6
2018-Feb-13 07:00N 28°35' W 030°14'1 0.8 1024.9 20.6
2018-Feb-13 06:00N 28°36' W 030°13'1 0.5 1025.1 20.6
2018-Feb-13 05:00N 28°36' W 030°13'1 0.5 1025.4 20.6
2018-Feb-13 04:00N 28°36' W 030°12'1 0.5 1025.9 20.6
2018-Feb-13 03:00N 28°36' W 030°11'1 0.6 1026.4 20.6
2018-Feb-13 02:00N 28°35' W 030°11'1 0.5 1026.6 20.6
2018-Feb-13 01:00N 28°35' W 030°11'1 0.8 1027.0 20.6
2018-Feb-13 00:00N 28°35' W 030°10'1 0.5 1027.3 20.6
2018-Feb-12 23:00N 28°35' W 030°10'1 0.6 1027.5 20.6
2018-Feb-12 22:00N 28°34' W 030°10'1 0.5 1027.3 20.6
2018-Feb-12 21:00N 28°34' W 030°09'1 0.5 1026.8 20.6
2018-Feb-12 20:00N 28°34' W 030°08'0 0.0 1026.5 20.6
2018-Feb-12 19:00N 28°34' W 030°08'1 0.5 1026.4 20.7
2018-Feb-12 18:00N 28°34' W 030°08'0 0.0 1026.3 20.7
2018-Feb-12 17:00N 28°34' W 030°08'1 0.8 1026.5 20.7
2018-Feb-12 16:00N 28°34' W 030°07'0 0.0 1026.9 20.7
2018-Feb-12 15:00N 28°34' W 030°07'1 0.5 1027.3 20.7
2018-Feb-12 14:00N 28°34' W 030°07'1 0.5 1028.1 20.7
2018-Feb-12 13:00N 28°34' W 030°06'1 0.5 1028.7 20.7
2018-Feb-12 12:00N 28°34' W 030°05'0 0.0 1028.9 20.7
2018-Feb-12 11:00N 28°34' W 030°05'1 0.5 1028.7 20.7
2018-Feb-12 10:00N 28°34' W 030°05'1 0.6 1028.4 20.7
2018-Feb-12 09:00N 28°33' W 030°05'1 0.5 1027.9 20.7
2018-Feb-12 08:00N 28°33' W 030°04'0 0.0 1027.6 20.7
2018-Feb-12 07:00N 28°33' W 030°04'1 0.5 1027.2 20.7
2018-Feb-12 06:00N 28°33' W 030°04'0 0.0 1027.0 20.7
2018-Feb-12 05:00N 28°33' W 030°04'1 0.6 1027.2 20.7
2018-Feb-12 04:00N 28°34' W 030°04'1 0.5 1027.6 20.7
2018-Feb-12 03:00N 28°34' W 030°03'0 0.0 1027.8 20.7
2018-Feb-12 02:00N 28°34' W 030°03'1 0.5 1028.0 20.7
2018-Feb-12 01:00N 28°34' W 030°02'1 0.8 1028.5 20.6
2018-Feb-12 00:00N 28°33' W 030°02'0 0.0 1028.5 20.6
2018-Feb-11 23:00N 28°33' W 030°02'1 0.5 1028.6 20.6
2018-Feb-11 22:00N 28°33' W 030°01'1 0.5 1028.3 20.6
2018-Feb-11 21:00N 28°33' W 030°01'1 0.5 1027.8 20.6
2018-Feb-11 20:00N 28°33' W 030°00'0 0.0 1027.1 20.7
2018-Feb-11 19:00N 28°33' W 030°00'1 0.8 1026.9 20.7
2018-Feb-11 18:00N 28°34' W 029°59'0 0.0 1026.8 20.7
2018-Feb-11 17:00N 28°34' W 029°59'1 0.5 1027.0 20.7
2018-Feb-11 16:00N 28°34' W 029°59'1 0.5 1027.2 20.8
2018-Feb-11 15:00N 28°34' W 029°58'0 0.0 1027.7 20.7
2018-Feb-11 14:00N 28°34' W 029°58'1 0.5 1028.7 20.7
2018-Feb-11 13:00N 28°34' W 029°58'1 0.5 1029.3 20.7
2018-Feb-11 12:00N 28°34' W 029°57'0 0.0 1029.6 20.7
2018-Feb-11 11:00N 28°34' W 029°57'1 0.5 1029.3 20.7
2018-Feb-11 10:00N 28°34' W 029°56'1 0.5 1028.8 20.7
2018-Feb-11 09:00N 28°34' W 029°56'1 0.6 1028.4 20.7
2018-Feb-11 08:00N 28°34' W 029°56'1 0.5 1027.9 20.7
2018-Feb-11 07:00N 28°34' W 029°55'1 0.5 1027.8 20.7
2018-Feb-11 06:00N 28°34' W 029°55'1 0.6 1027.6 20.7
2018-Feb-11 05:00N 28°35' W 029°55'1 0.5 1027.7 20.7
2018-Feb-11 04:00N 28°35' W 029°54'1 0.6 1028.0 20.7
2018-Feb-11 03:00N 28°35' W 029°54'1 0.5 1028.3 20.7
2018-Feb-11 02:00N 28°35' W 029°53'1 0.6 1029.3 20.7
2018-Feb-11 01:00N 28°36' W 029°53'1 0.8 1030.2 20.7
2018-Feb-11 00:00N 28°37' W 029°53'0 0.0 1030.4 20.7
2018-Feb-10 23:00N 28°37' W 029°53'1 0.5 1030.5 20.7
2018-Feb-10 22:00N 28°37' W 029°52'1 0.6 1030.3 20.7
2018-Feb-10 21:00N 28°37' W 029°52'1 0.5 1029.8 20.6
2018-Feb-10 20:00N 28°37' W 029°52'1 0.5 1029.4 20.6
2018-Feb-10 19:00N 28°37' W 029°51'1 0.6 1029.3 20.6
2018-Feb-10 18:00N 28°38' W 029°51'1 1.1 1029.3 20.6
2018-Feb-10 17:00N 28°38' W 029°50'1 0.5 1029.7 20.6
2018-Feb-10 16:00N 28°38' W 029°49'1 0.8 1029.9 20.6
2018-Feb-10 15:00N 28°38' W 029°49'1 0.5 1030.5 20.6
2018-Feb-10 14:00N 28°38' W 029°48'1 0.8 1031.1 20.7
2018-Feb-10 13:00N 28°39' W 029°47'1 0.5 1031.7 20.6
2018-Feb-10 12:00N 28°39' W 029°47'1 0.5 1031.9 20.7
2018-Feb-10 11:00N 28°39' W 029°46'1 0.5 1031.9 20.6
2018-Feb-10 10:00N 28°39' W 029°46'1 1.2 1031.7 20.7
2018-Feb-10 09:00N 28°40' W 029°44'1 0.5 1031.4 20.7
2018-Feb-10 08:00N 28°40' W 029°44'1 0.5 1031.0 20.7
2018-Feb-10 07:00N 28°40' W 029°43'1 0.5 1030.8 20.7
2018-Feb-10 06:00N 28°40' W 029°43'1 0.5 1030.8 20.7
2018-Feb-10 05:00N 28°40' W 029°42'1 0.5 1031.3 20.7
2018-Feb-10 04:00N 28°40' W 029°41'1 0.5 1031.6 20.7
2018-Feb-10 03:00N 28°40' W 029°41'1 0.8 1032.2 20.7
2018-Feb-10 02:00N 28°40' W 029°40'1 0.5 1032.1 20.7
2018-Feb-10 01:00N 28°40' W 029°40'0 0.0 1032.7 20.7
2018-Feb-10 00:00N 28°40' W 029°40'1 0.5 1032.8 20.8
2018-Feb-09 23:00N 28°40' W 029°39'1 0.8 1032.9 20.8
2018-Feb-09 22:00N 28°41' W 029°38'0 0.0 1032.8 20.8
2018-Feb-09 21:00N 28°41' W 029°38'1 0.5 1032.2 20.8
2018-Feb-09 20:00N 28°41' W 029°38'1 0.5 1031.6 20.7
2018-Feb-09 19:00N 28°41' W 029°37'1 0.6 1031.3 20.8
2018-Feb-09 18:00N 28°41' W 029°37'1 0.5 1031.1 20.7
2018-Feb-09 17:00N 28°41' W 029°37'1 0.8 1031.1 20.7
2018-Feb-09 16:00N 28°42' W 029°36'1 0.5 1031.6 20.7
2018-Feb-09 15:00N 28°42' W 029°35'1 0.8 1032.0 20.7
2018-Feb-09 14:00N 28°43' W 029°35'1 0.8 1032.8 20.6
2018-Feb-09 13:00N 28°43' W 029°34'1 0.8 1033.4 20.6
2018-Feb-09 12:00N 28°44' W 029°34'1 0.8 1034.0 20.6
2018-Feb-09 11:00N 28°44' W 029°33'0 0.0 1033.6 20.6
2018-Feb-09 10:00N 28°44' W 029°33'1 0.8 1033.1 20.6
2018-Feb-09 09:00N 28°45' W 029°32'1 0.5 1032.7 20.6
2018-Feb-09 08:00N 28°45' W 029°32'1 0.4 1032.1 20.6
2018-Feb-09 06:00N 28°46' W 029°31'1 0.5 1031.9 20.6
2018-Feb-09 05:00N 28°46' W 029°31'1 0.5 1032.2 20.6
2018-Feb-09 04:00N 28°46' W 029°30'1 0.5 1032.4 20.6
2018-Feb-09 03:00N 28°46' W 029°29'1 0.5 1032.7 20.6
2018-Feb-09 02:00N 28°46' W 029°29'1 0.8 1032.9 20.6
2018-Feb-09 01:00N 28°46' W 029°28'1 1.1 1033.4 20.7
2018-Feb-09 00:00N 28°46' W 029°27'1 0.5 1033.4 20.7
2018-Feb-08 23:00N 28°46' W 029°26'   1033.2 20.7
Track history (hours):
 
Tides and Currents Weather Stations Pressure Air Temp Water Temp Dewpoint Dewpoint Depression Visibility Wind Speed Wind Dir Waves Ship Positions

Drifting buoy 44857

Last reported at 2018-Feb-18 23:00 UTC. Time now 2018-Feb-19 00:07 UTC.
Position N 28°48' W 030°25'.

Barometer 1023.9 mb
Water temperature 20.8 ° C

Date/timePositionNaut miles runAvg speedWind from/ knotsBaromVisibWave heightAir tempDewpointWater temp
2018-Feb-18 23:00N 28°48' W 030°25'1 0.5 1023.9 20.8
2018-Feb-18 22:00N 28°48' W 030°24'0 0.0 1024.0 20.8
2018-Feb-18 21:00N 28°48' W 030°24'0 0.0 1023.6 20.8
2018-Feb-18 20:00N 28°48' W 030°24'0 0.0 1023.5 20.9
2018-Feb-18 19:00N 28°48' W 030°24'0 0.0 1023.1 20.9
2018-Feb-18 18:00N 28°48' W 030°24'0 0.0 1022.9 21.2
2018-Feb-18 17:00N 28°48' W 030°24'1 0.5 1022.9 21.3
2018-Feb-18 16:00N 28°48' W 030°23'1 0.6 1023.3 21.4
2018-Feb-18 15:00N 28°47' W 030°23'0 0.0 1023.6 21.7
2018-Feb-18 14:00N 28°47' W 030°23'1 0.5 1024.3 21.6
2018-Feb-18 13:00N 28°47' W 030°24'1 0.8 1024.8 21.1
2018-Feb-18 12:00N 28°47' W 030°23'0 0.0 1024.9 20.8
2018-Feb-18 11:00N 28°47' W 030°23'0 0.0 1024.8 20.7
2018-Feb-18 10:00N 28°47' W 030°23'0 0.0 1024.2 20.6
2018-Feb-18 09:00N 28°47' W 030°23'0 0.0 1024.0 20.7
2018-Feb-18 08:00N 28°47' W 030°23'0 0.0 1023.7 20.6
2018-Feb-18 07:00N 28°47' W 030°23'0 0.0 1023.5 20.7
2018-Feb-18 06:00N 28°47' W 030°23'0 0.0 1023.7 20.7
2018-Feb-18 05:00N 28°47' W 030°23'0 0.0 1024.0 20.7
2018-Feb-18 04:00N 28°47' W 030°23'0 0.0 1024.4 20.7
2018-Feb-18 03:00N 28°47' W 030°23'0 0.0 1024.9 20.7
2018-Feb-18 02:00N 28°47' W 030°23'0 0.0 1025.3 20.8
2018-Feb-18 01:00N 28°47' W 030°23'0 0.0 1025.5 20.8
2018-Feb-18 00:00N 28°47' W 030°23'0 0.0 1025.9 20.8
2018-Feb-17 23:00N 28°47' W 030°23'0 0.0 1026.3 20.9
2018-Feb-17 22:00N 28°47' W 030°23'1 0.5 1026.1 20.9
2018-Feb-17 21:00N 28°47' W 030°24'0 0.0 1025.9 21.0
2018-Feb-17 20:00N 28°47' W 030°24'0 0.0 1025.5 21.1
2018-Feb-17 19:00N 28°47' W 030°24'0 0.0 1025.1 21.2
2018-Feb-17 18:00N 28°47' W 030°24'1 0.6 1025.0 21.3
2018-Feb-17 17:00N 28°46' W 030°24'0 0.0 1024.9 21.4
2018-Feb-17 16:00N 28°46' W 030°24'1 0.6 1025.2 21.4
2018-Feb-17 15:00N 28°46' W 030°24'0 0.0 1025.6 21.2
2018-Feb-17 14:00N 28°46' W 030°24'1 0.6 1026.4 21.1
2018-Feb-17 13:00N 28°45' W 030°24'1 0.5 1026.9 21.1
2018-Feb-17 12:00N 28°45' W 030°23'1 0.6 1027.0 20.9
2018-Feb-17 11:00N 28°44' W 030°23'0 0.0 1026.9 20.9
2018-Feb-17 10:00N 28°44' W 030°23'0 0.0 1026.4 20.8
2018-Feb-17 09:00N 28°44' W 030°23'1 0.6 1026.1 20.8
2018-Feb-17 08:00N 28°44' W 030°23'1 0.5 1025.6 20.8
2018-Feb-17 07:00N 28°44' W 030°23'0 0.0 1025.5 20.8
2018-Feb-17 06:00N 28°44' W 030°23'1 0.6 1025.3 20.9
2018-Feb-17 05:00N 28°43' W 030°23'0 0.0 1025.4 20.9
2018-Feb-17 04:00N 28°43' W 030°23'0 0.0 1025.8 20.8
2018-Feb-17 03:00N 28°43' W 030°23'1 0.6 1026.0 20.9
2018-Feb-17 02:00N 28°43' W 030°23'0 0.0 1026.3 20.9
2018-Feb-17 01:00N 28°43' W 030°23'0 0.0 1026.2 20.9
2018-Feb-17 00:00N 28°43' W 030°23'0 0.0 1026.4 20.9
2018-Feb-16 23:00N 28°43' W 030°23'0 0.0 1026.3 21.0
2018-Feb-16 22:00N 28°43' W 030°23'0 0.0 1026.1 21.1
2018-Feb-16 21:00N 28°43' W 030°23'0 0.0 1025.8 21.6
2018-Feb-16 20:00N 28°43' W 030°23'0 0.0 1025.2 21.7
2018-Feb-16 19:00N 28°43' W 030°23'0 0.0 1024.8 21.9
2018-Feb-16 18:00N 28°43' W 030°23'1 0.5 1024.3 22.1
2018-Feb-16 17:00N 28°43' W 030°23'0 0.0 1024.3 22.1
2018-Feb-16 16:00N 28°43' W 030°23'1 0.6 1024.1 22.8
2018-Feb-16 15:00N 28°42' W 030°23'0 0.0 1024.1 22.3
2018-Feb-16 14:00N 28°42' W 030°23'1 0.8 1024.6 21.8
2018-Feb-16 13:00N 28°41' W 030°24'0 0.0 1025.2 21.4
2018-Feb-16 12:00N 28°41' W 030°24'1 0.6 1025.4 21.1
2018-Feb-16 11:00N 28°41' W 030°24'0 0.0 1024.9 20.8
2018-Feb-16 10:00N 28°41' W 030°24'0 0.0 1024.4 20.8
2018-Feb-16 09:00N 28°41' W 030°24'0 0.0 1024.1 20.8
2018-Feb-16 08:00N 28°41' W 030°24'1 0.6 1023.6 20.8
2018-Feb-16 07:00N 28°40' W 030°24'0 0.0 1023.2 20.8
2018-Feb-16 06:00N 28°40' W 030°24'0 0.0 1023.1 20.8
2018-Feb-16 05:00N 28°40' W 030°24'1 0.6 1022.9 20.8
2018-Feb-16 04:00N 28°40' W 030°24'0 0.0 1023.0 20.9
2018-Feb-16 03:00N 28°40' W 030°24'1 0.6 1023.2 20.9
2018-Feb-16 02:00N 28°39' W 030°24'0 0.0 1023.3 20.9
2018-Feb-16 01:00N 28°39' W 030°24'1 0.8 1023.4 21.0
2018-Feb-16 00:00N 28°38' W 030°25'0 0.0 1023.3 21.0
2018-Feb-15 23:00N 28°38' W 030°25'1 0.5 1023.2 21.1
2018-Feb-15 22:00N 28°38' W 030°24'1 0.6 1022.9 21.1
2018-Feb-15 21:00N 28°38' W 030°24'0 0.0 1022.4 21.3
2018-Feb-15 20:00N 28°38' W 030°24'0 0.0 1022.4 21.4
2018-Feb-15 19:00N 28°38' W 030°24'0 0.0 1022.2 21.6
2018-Feb-15 18:00N 28°38' W 030°24'1 0.6 1021.9 21.6
2018-Feb-15 17:00N 28°37' W 030°24'0 0.0 1021.7 21.8
2018-Feb-15 16:00N 28°37' W 030°24'1 0.6 1022.0 21.7
2018-Feb-15 15:00N 28°37' W 030°24'0 0.0 1022.4 21.4
2018-Feb-15 14:00N 28°37' W 030°24'1 0.6 1022.9 21.2
2018-Feb-15 13:00N 28°36' W 030°24'0 0.0 1023.3 21.0
2018-Feb-15 12:00N 28°36' W 030°24'0 0.0 1023.2 20.8
2018-Feb-15 11:00N 28°36' W 030°24'1 0.6 1023.0 20.8
2018-Feb-15 10:00N 28°35' W 030°24'1 0.5 1022.4 20.8
2018-Feb-15 09:00N 28°35' W 030°23'0 0.0 1021.9 20.7
2018-Feb-15 08:00N 28°35' W 030°23'0 0.0 1021.4 20.8
2018-Feb-15 07:00N 28°35' W 030°23'0 0.0 1021.0 20.8
2018-Feb-15 06:00N 28°35' W 030°23'0 0.0 1020.8 20.7
2018-Feb-15 05:00N 28°35' W 030°23'0 0.0 1020.9 20.7
2018-Feb-15 04:00N 28°35' W 030°23'1 0.6 1021.2 20.7
2018-Feb-15 03:00N 28°35' W 030°23'0 0.0 1021.8 20.7
2018-Feb-15 02:00N 28°35' W 030°23'1 0.6 1022.0 20.7
2018-Feb-15 01:00N 28°34' W 030°23'1 0.5 1022.1 20.7
2018-Feb-15 00:00N 28°34' W 030°23'0 0.0 1022.4 20.6
2018-Feb-14 23:00N 28°34' W 030°23'1 0.6 1022.5 20.6
2018-Feb-14 22:00N 28°34' W 030°23'0 0.0 1022.4 20.6
2018-Feb-14 21:00N 28°34' W 030°23'1 0.5 1022.0 20.6
2018-Feb-14 20:00N 28°34' W 030°22'0 0.0 1021.4 20.7
2018-Feb-14 19:00N 28°34' W 030°22'1 0.5 1021.4 20.7
2018-Feb-14 18:00N 28°34' W 030°22'0 0.0 1021.4 20.8
2018-Feb-14 17:00N 28°34' W 030°22'0 0.0 1021.6 20.8
2018-Feb-14 16:00N 28°34' W 030°22'1 0.5 1022.0 20.7
2018-Feb-14 15:00N 28°34' W 030°21'0 0.0 1022.3 20.7
2018-Feb-14 14:00N 28°34' W 030°21'0 0.0 1023.1 20.6
2018-Feb-14 13:00N 28°34' W 030°21'1 0.5 1023.5 20.6
2018-Feb-14 12:00N 28°34' W 030°20'0 0.0 1023.8 20.6
2018-Feb-14 11:00N 28°34' W 030°20'0 0.0 1023.8 20.6
2018-Feb-14 10:00N 28°34' W 030°20'0 0.0 1023.4 20.5
2018-Feb-14 09:00N 28°34' W 030°20'1 0.5 1023.0 20.5
2018-Feb-14 08:00N 28°34' W 030°20'0 0.0 1022.7 20.5
2018-Feb-14 07:00N 28°34' W 030°20'0 0.0 1022.4 20.5
2018-Feb-14 06:00N 28°34' W 030°20'1 0.5 1022.7 20.5
2018-Feb-14 05:00N 28°34' W 030°19'1 0.6 1022.9 20.6
2018-Feb-14 04:00N 28°34' W 030°19'0 0.0 1023.4 20.5
2018-Feb-14 03:00N 28°34' W 030°19'1 0.6 1023.8 20.5
2018-Feb-14 02:00N 28°34' W 030°19'0 0.0 1024.1 20.4
2018-Feb-14 01:00N 28°34' W 030°19'0 0.0 1024.5 20.4
2018-Feb-14 00:00N 28°34' W 030°19'0 0.0 1024.6 20.4
2018-Feb-13 23:00N 28°34' W 030°19'1 0.5 1024.7 20.5
2018-Feb-13 22:00N 28°34' W 030°19'0 0.0 1024.5 20.6
2018-Feb-13 21:00N 28°34' W 030°19'0 0.0 1024.3 20.6
2018-Feb-13 20:00N 28°34' W 030°19'1 0.5 1024.3 20.7
2018-Feb-13 19:00N 28°34' W 030°18'1 0.6 1024.0 20.7
2018-Feb-13 18:00N 28°34' W 030°18'0 0.0 1024.1 20.7
2018-Feb-13 17:00N 28°34' W 030°18'0 0.0 1024.5 20.7
2018-Feb-13 16:00N 28°34' W 030°18'1 0.5 1024.8 20.7
2018-Feb-13 15:00N 28°34' W 030°17'1 0.6 1025.2 20.7
2018-Feb-13 14:00N 28°35' W 030°17'1 0.5 1025.8 20.7
2018-Feb-13 13:00N 28°35' W 030°17'1 0.5 1026.3 20.7
2018-Feb-13 12:00N 28°35' W 030°16'0 0.0 1026.5 20.6
2018-Feb-13 11:00N 28°35' W 030°16'1 1.1 1026.4 20.6
2018-Feb-13 10:00N 28°35' W 030°15'1 0.8 1025.8 20.6
2018-Feb-13 09:00N 28°35' W 030°14'0 0.0 1025.5 20.6
2018-Feb-13 08:00N 28°35' W 030°14'1 0.5 1025.1 20.6
2018-Feb-13 07:00N 28°35' W 030°14'1 0.8 1024.9 20.6
2018-Feb-13 06:00N 28°36' W 030°13'1 0.5 1025.1 20.6
2018-Feb-13 05:00N 28°36' W 030°13'1 0.5 1025.4 20.6
2018-Feb-13 04:00N 28°36' W 030°12'1 0.5 1025.9 20.6
2018-Feb-13 03:00N 28°36' W 030°11'1 0.6 1026.4 20.6
2018-Feb-13 02:00N 28°35' W 030°11'1 0.5 1026.6 20.6
2018-Feb-13 01:00N 28°35' W 030°11'1 0.8 1027.0 20.6
2018-Feb-13 00:00N 28°35' W 030°10'1 0.5 1027.3 20.6
2018-Feb-12 23:00N 28°35' W 030°10'1 0.6 1027.5 20.6
2018-Feb-12 22:00N 28°34' W 030°10'1 0.5 1027.3 20.6
2018-Feb-12 21:00N 28°34' W 030°09'1 0.5 1026.8 20.6
2018-Feb-12 20:00N 28°34' W 030°08'0 0.0 1026.5 20.6
2018-Feb-12 19:00N 28°34' W 030°08'1 0.5 1026.4 20.7
2018-Feb-12 18:00N 28°34' W 030°08'0 0.0 1026.3 20.7
2018-Feb-12 17:00N 28°34' W 030°08'1 0.8 1026.5 20.7
2018-Feb-12 16:00N 28°34' W 030°07'0 0.0 1026.9 20.7
2018-Feb-12 15:00N 28°34' W 030°07'1 0.5 1027.3 20.7
2018-Feb-12 14:00N 28°34' W 030°07'1 0.5 1028.1 20.7
2018-Feb-12 13:00N 28°34' W 030°06'1 0.5 1028.7 20.7
2018-Feb-12 12:00N 28°34' W 030°05'0 0.0 1028.9 20.7
2018-Feb-12 11:00N 28°34' W 030°05'1 0.5 1028.7 20.7
2018-Feb-12 10:00N 28°34' W 030°05'1 0.6 1028.4 20.7
2018-Feb-12 09:00N 28°33' W 030°05'1 0.5 1027.9 20.7
2018-Feb-12 08:00N 28°33' W 030°04'0 0.0 1027.6 20.7
2018-Feb-12 07:00N 28°33' W 030°04'1 0.5 1027.2 20.7
2018-Feb-12 06:00N 28°33' W 030°04'0 0.0 1027.0 20.7
2018-Feb-12 05:00N 28°33' W 030°04'1 0.6 1027.2 20.7
2018-Feb-12 04:00N 28°34' W 030°04'1 0.5 1027.6 20.7
2018-Feb-12 03:00N 28°34' W 030°03'0 0.0 1027.8 20.7
2018-Feb-12 02:00N 28°34' W 030°03'1 0.5 1028.0 20.7
2018-Feb-12 01:00N 28°34' W 030°02'1 0.8 1028.5 20.6
2018-Feb-12 00:00N 28°33' W 030°02'0 0.0 1028.5 20.6
2018-Feb-11 23:00N 28°33' W 030°02'1 0.5 1028.6 20.6
2018-Feb-11 22:00N 28°33' W 030°01'1 0.5 1028.3 20.6
2018-Feb-11 21:00N 28°33' W 030°01'1 0.5 1027.8 20.6
2018-Feb-11 20:00N 28°33' W 030°00'0 0.0 1027.1 20.7
2018-Feb-11 19:00N 28°33' W 030°00'1 0.8 1026.9 20.7
2018-Feb-11 18:00N 28°34' W 029°59'0 0.0 1026.8 20.7
2018-Feb-11 17:00N 28°34' W 029°59'1 0.5 1027.0 20.7
2018-Feb-11 16:00N 28°34' W 029°59'1 0.5 1027.2 20.8
2018-Feb-11 15:00N 28°34' W 029°58'0 0.0 1027.7 20.7
2018-Feb-11 14:00N 28°34' W 029°58'1 0.5 1028.7 20.7
2018-Feb-11 13:00N 28°34' W 029°58'1 0.5 1029.3 20.7
2018-Feb-11 12:00N 28°34' W 029°57'0 0.0 1029.6 20.7
2018-Feb-11 11:00N 28°34' W 029°57'1 0.5 1029.3 20.7
2018-Feb-11 10:00N 28°34' W 029°56'1 0.5 1028.8 20.7
2018-Feb-11 09:00N 28°34' W 029°56'1 0.6 1028.4 20.7
2018-Feb-11 08:00N 28°34' W 029°56'1 0.5 1027.9 20.7
2018-Feb-11 07:00N 28°34' W 029°55'1 0.5 1027.8 20.7
2018-Feb-11 06:00N 28°34' W 029°55'1 0.6 1027.6 20.7
2018-Feb-11 05:00N 28°35' W 029°55'1 0.5 1027.7 20.7
2018-Feb-11 04:00N 28°35' W 029°54'1 0.6 1028.0 20.7
2018-Feb-11 03:00N 28°35' W 029°54'1 0.5 1028.3 20.7
2018-Feb-11 02:00N 28°35' W 029°53'1 0.6 1029.3 20.7
2018-Feb-11 01:00N 28°36' W 029°53'1 0.8 1030.2 20.7
2018-Feb-11 00:00N 28°37' W 029°53'0 0.0 1030.4 20.7
2018-Feb-10 23:00N 28°37' W 029°53'1 0.5 1030.5 20.7
2018-Feb-10 22:00N 28°37' W 029°52'1 0.6 1030.3 20.7
2018-Feb-10 21:00N 28°37' W 029°52'1 0.5 1029.8 20.6
2018-Feb-10 20:00N 28°37' W 029°52'1 0.5 1029.4 20.6
2018-Feb-10 19:00N 28°37' W 029°51'1 0.6 1029.3 20.6
2018-Feb-10 18:00N 28°38' W 029°51'1 1.1 1029.3 20.6
2018-Feb-10 17:00N 28°38' W 029°50'1 0.5 1029.7 20.6
2018-Feb-10 16:00N 28°38' W 029°49'1 0.8 1029.9 20.6
2018-Feb-10 15:00N 28°38' W 029°49'1 0.5 1030.5 20.6
2018-Feb-10 14:00N 28°38' W 029°48'1 0.8 1031.1 20.7
2018-Feb-10 13:00N 28°39' W 029°47'1 0.5 1031.7 20.6
2018-Feb-10 12:00N 28°39' W 029°47'1 0.5 1031.9 20.7
2018-Feb-10 11:00N 28°39' W 029°46'1 0.5 1031.9 20.6
2018-Feb-10 10:00N 28°39' W 029°46'1 1.2 1031.7 20.7
2018-Feb-10 09:00N 28°40' W 029°44'1 0.5 1031.4 20.7
2018-Feb-10 08:00N 28°40' W 029°44'1 0.5 1031.0 20.7
2018-Feb-10 07:00N 28°40' W 029°43'1 0.5 1030.8 20.7
2018-Feb-10 06:00N 28°40' W 029°43'1 0.5 1030.8 20.7
2018-Feb-10 05:00N 28°40' W 029°42'1 0.5 1031.3 20.7
2018-Feb-10 04:00N 28°40' W 029°41'1 0.5 1031.6 20.7
2018-Feb-10 03:00N 28°40' W 029°41'1 0.8 1032.2 20.7
2018-Feb-10 02:00N 28°40' W 029°40'1 0.5 1032.1 20.7
2018-Feb-10 01:00N 28°40' W 029°40'0 0.0 1032.7 20.7
2018-Feb-10 00:00N 28°40' W 029°40'1 0.5 1032.8 20.8
2018-Feb-09 23:00N 28°40' W 029°39'1 0.8 1032.9 20.8
2018-Feb-09 22:00N 28°41' W 029°38'0 0.0 1032.8 20.8
2018-Feb-09 21:00N 28°41' W 029°38'1 0.5 1032.2 20.8
2018-Feb-09 20:00N 28°41' W 029°38'1 0.5 1031.6 20.7
2018-Feb-09 19:00N 28°41' W 029°37'1 0.6 1031.3 20.8
2018-Feb-09 18:00N 28°41' W 029°37'1 0.5 1031.1 20.7
2018-Feb-09 17:00N 28°41' W 029°37'1 0.8 1031.1 20.7
2018-Feb-09 16:00N 28°42' W 029°36'1 0.5 1031.6 20.7
2018-Feb-09 15:00N 28°42' W 029°35'1 0.8 1032.0 20.7
2018-Feb-09 14:00N 28°43' W 029°35'1 0.8 1032.8 20.6
2018-Feb-09 13:00N 28°43' W 029°34'1 0.8 1033.4 20.6
2018-Feb-09 12:00N 28°44' W 029°34'1 0.8 1034.0 20.6
2018-Feb-09 11:00N 28°44' W 029°33'0 0.0 1033.6 20.6
2018-Feb-09 10:00N 28°44' W 029°33'1 0.8 1033.1 20.6
2018-Feb-09 09:00N 28°45' W 029°32'1 0.5 1032.7 20.6
2018-Feb-09 08:00N 28°45' W 029°32'1 0.4 1032.1 20.6
2018-Feb-09 06:00N 28°46' W 029°31'1 0.5 1031.9 20.6
2018-Feb-09 05:00N 28°46' W 029°31'1 0.5 1032.2 20.6
2018-Feb-09 04:00N 28°46' W 029°30'1 0.5 1032.4 20.6
2018-Feb-09 03:00N 28°46' W 029°29'1 0.5 1032.7 20.6
2018-Feb-09 02:00N 28°46' W 029°29'1 0.8 1032.9 20.6
2018-Feb-09 01:00N 28°46' W 029°28'1 1.1 1033.4 20.7
2018-Feb-09 00:00N 28°46' W 029°27'1 0.5 1033.4 20.7
2018-Feb-08 23:00N 28°46' W 029°26'   1033.2 20.7

Dump ship's entire track history